createdAt,value
2023-02-08T00:52:29.743Z,12.47
2023-02-08T00:55:04.608Z,11.27
2023-02-08T00:57:35.673Z,11.80
2023-02-08T01:00:08.333Z,12.10
2023-02-08T01:02:47.659Z,11.70
2023-02-08T01:05:21.600Z,11.43
2023-02-08T01:07:53.501Z,12.33
2023-02-08T01:10:25.325Z,10.30
2023-02-08T01:13:03.173Z,11.47
2023-02-08T01:15:35.696Z,10.37
2023-02-08T01:18:13.040Z,11.17
2023-02-08T01:20:41.840Z,11.13
2023-02-08T01:23:23.548Z,10.63
2023-02-08T01:25:52.652Z,11.23
2023-02-08T01:28:25.885Z,10.03
2023-02-08T01:31:48.707Z,10.93
2023-02-08T01:34:18.486Z,11.20
2023-02-08T01:36:48.786Z,10.50
2023-02-08T01:39:21.068Z,10.40
2023-02-08T01:46:20.518Z,10.20
2023-02-08T01:48:49.734Z,12.50
2023-02-08T01:51:25.581Z,11.97
2023-02-08T01:53:55.874Z,11.00
2023-02-08T02:00:32.022Z,10.10
2023-02-08T02:03:01.170Z,10.20
2023-02-08T02:05:42.659Z,10.17
2023-02-08T02:14:21.430Z,11.80
2023-02-08T02:16:50.917Z,11.73
2023-02-08T02:19:40.565Z,13.00
2023-02-08T02:29:30.827Z,10.93
2023-02-08T02:32:16.167Z,11.10
2023-02-08T02:35:01.895Z,10.20
2023-02-08T02:42:20.386Z,11.13
2023-02-08T02:44:56.496Z,11.87
2023-02-08T02:47:34.448Z,11.43
2023-02-08T02:57:11.022Z,10.63
2023-02-08T02:59:40.293Z,10.73
2023-02-08T03:02:08.561Z,10.43
2023-02-08T03:08:39.452Z,10.30
2023-02-08T03:11:30.869Z,9.90
2023-02-08T03:14:27.989Z,10.37
2023-02-08T03:24:11.207Z,10.47
2023-02-08T03:27:10.139Z,10.13
2023-02-08T03:29:45.696Z,10.27
2023-02-08T03:36:03.796Z,10.37
2023-02-08T03:38:36.564Z,9.60
2023-02-08T03:41:06.850Z,11.00
2023-02-08T03:44:19.039Z,10.20
2023-02-08T03:50:33.078Z,11.47
2023-02-08T03:53:01.014Z,11.07
2023-02-08T03:55:32.819Z,10.50
2023-02-08T04:04:41.654Z,10.57
2023-02-08T04:07:09.439Z,9.67
2023-02-08T04:09:38.907Z,11.57
2023-02-08T04:18:57.525Z,12.23
2023-02-08T04:21:29.048Z,10.20
2023-02-08T04:23:58.270Z,11.20
2023-02-08T04:30:42.162Z,10.77
2023-02-08T04:33:13.397Z,10.00
2023-02-08T04:35:46.572Z,11.57
2023-02-08T04:38:42.659Z,10.97
2023-02-08T04:42:12.128Z,10.27
2023-02-08T04:44:41.527Z,10.50
2023-02-08T04:47:12.531Z,10.50
2023-02-08T04:49:40.534Z,9.23
2023-02-08T04:59:04.270Z,9.53
2023-02-08T05:01:36.622Z,9.13
2023-02-08T05:04:05.731Z,10.67
2023-02-08T05:10:42.125Z,9.20
2023-02-08T05:13:16.036Z,10.43
2023-02-08T05:15:47.702Z,10.13
2023-02-08T05:18:34.745Z,11.50
2023-02-08T05:25:10.743Z,12.97
2023-02-08T05:30:21.748Z,12.33
2023-02-08T05:37:30.750Z,11.63
2023-02-08T05:40:02.386Z,10.40
2023-02-08T05:45:24.637Z,10.73
2023-02-08T05:52:02.653Z,11.53
2023-02-08T05:54:33.877Z,11.20
2023-02-08T05:57:05.908Z,11.37
2023-02-08T05:59:41.501Z,10.73
2023-02-08T06:06:26.281Z,11.27
2023-02-08T06:08:54.738Z,10.53
2023-02-08T06:11:26.693Z,9.73
2023-02-08T06:17:43.778Z,11.37
2023-02-08T06:20:11.509Z,14.47
2023-02-08T06:22:41.890Z,15.93
2023-02-08T06:25:10.443Z,12.23
2023-02-08T06:31:16.954Z,11.10
2023-02-08T06:33:44.275Z,13.20
2023-02-08T06:36:11.686Z,15.70
2023-02-08T06:38:38.827Z,12.97
2023-02-08T06:41:12.431Z,10.93
2023-02-08T06:47:16.062Z,14.07
2023-02-08T06:52:25.724Z,25.13
2023-02-08T07:01:20.731Z,12.90
2023-02-08T07:03:48.250Z,18.47
2023-02-08T07:06:17.520Z,13.00
2023-02-08T07:14:49.798Z,12.10
2023-02-08T07:17:16.617Z,21.73
2023-02-08T07:19:43.390Z,29.73
2023-02-08T07:25:52.434Z,22.90
2023-02-08T07:28:19.484Z,27.30
2023-02-08T07:30:46.491Z,17.90
2023-02-08T07:39:42.565Z,18.20
2023-02-08T22:34:50.499Z,15.70
2023-02-08T22:37:20.901Z,15.73
2023-02-08T22:40:00.276Z,15.13
2023-02-08T22:50:06.236Z,16.97
2023-02-08T22:52:38.120Z,15.57
2023-02-08T22:55:07.683Z,15.00
2023-02-08T23:01:57.095Z,17.33
2023-02-08T23:04:26.022Z,15.43
2023-02-08T23:06:53.294Z,15.87
2023-02-08T23:09:20.650Z,15.23
2023-02-08T23:15:51.942Z,15.47
2023-02-08T23:18:19.700Z,15.60
2023-02-08T23:20:47.317Z,15.10
2023-02-08T23:23:15.157Z,16.80
2023-02-08T23:30:03.193Z,14.93
2023-02-08T23:32:30.642Z,15.27
2023-02-08T23:34:57.761Z,16.23
2023-02-08T23:37:25.218Z,15.47
2023-02-08T23:44:08.742Z,17.23
2023-02-08T23:46:35.850Z,16.80
2023-02-08T23:49:03.164Z,15.93
2023-02-08T23:51:33.338Z,16.17
2023-02-08T23:58:27.424Z,15.43
